MBS International Airport
KMBS : now visible

Airfield :











YOU CAN JOIN US ON...

 
LOGIN :

Register | Disclaimer

   EN    FR    IT 

 









Legend :    VFR   Marginal VFR   IFR   Intensive IFR   Very Intensive IFR
Visi :
Ceiling :
>= 8 km
>= 3000ft
5 to 8 km
1000 to 3000 ft
1500m to 5 km
500 to 1000 ft
800 to 1500m
200 to 500 ft
< 800m
< 200 ft
Symbols :   Thunderstorms  Fog  Heavy snow  Heavy precipitations  Wind > 20 kt






- Airport Elevation : 668 ft
- IATA code : MBS


KMBS - MBS International

CURRENT METAR :
  • 291853Z 01008KT 10SM OVC019 M04/M08 A3016 RMK AO2 SLP224 T10441083

EXPIRED METARs :
  • 291753Z 01013KT 10SM OVC018 M04/M08 A3015 RMK AO2 SLP219 60000 T10441078 11044 21050 50003
  • 291653Z 36012KT 10SM OVC017 M04/M08 A3016 RMK AO2 SLP223 T10441078
  • 291648Z 36013G22KT 10SM OVC015 M04/M08 A3016 RMK AO2

TAF KMBS
Valid from the 29 at 18:00 until the 30 at 18:00 UTC


291720Z 2918/3018 36012KT P6SM OVC015
FM292200 34007KT P6SM BKN025
FM301500 31008KT P6SM SCT025 BKN035
KZOB FIR / North America



MET'MAP, your aeronautical weather chart ! - Copyright ORBIFLY December 2007 - Disclaimer

ORBIFLY MET'MAP TEAM :

Programming & Development : Alexandra Zaïnal
Original concept : Baudouin d'Aumeries
Technical & hardware support : Manuel Goepfert
Assistance : Marc-Olivier Méhu




SOURCES & CREDITS :

   NOAA       Earth
Advisory